sensor_id;sensor_type;location;lat;lon;timestamp;temperature;humidity
10296;DHT22;5193;51.032;6.356;2023-10-31T00:01:47;11.20;99.90
10296;DHT22;5193;51.032;6.356;2023-10-31T00:04:14;11.20;99.90
10296;DHT22;5193;51.032;6.356;2023-10-31T00:06:42;11.20;99.90
10296;DHT22;5193;51.032;6.356;2023-10-31T00:09:09;11.20;99.90
10296;DHT22;5193;51.032;6.356;2023-10-31T00:11:41;11.20;99.90
10296;DHT22;5193;51.032;6.356;2023-10-31T00:14:07;11.20;99.90
10296;DHT22;5193;51.032;6.356;2023-10-31T00:16:35;11.10;99.90
10296;DHT22;5193;51.032;6.356;2023-10-31T00:19:03;11.10;99.90
10296;DHT22;5193;51.032;6.356;2023-10-31T00:21:28;11.10;99.90
10296;DHT22;5193;51.032;6.356;2023-10-31T00:23:56;11.10;99.90
10296;DHT22;5193;51.032;6.356;2023-10-31T00:26:21;11.10;99.90
10296;DHT22;5193;51.032;6.356;2023-10-31T00:28:56;11.10;99.90
10296;DHT22;5193;51.032;6.356;2023-10-31T00:31:23;11.10;99.90
10296;DHT22;5193;51.032;6.356;2023-10-31T00:33:49;11.10;99.90
10296;DHT22;5193;51.032;6.356;2023-10-31T00:36:15;11.10;99.90
10296;DHT22;5193;51.032;6.356;2023-10-31T00:38:41;11.00;99.90
10296;DHT22;5193;51.032;6.356;2023-10-31T00:41:07;11.00;99.90
10296;DHT22;5193;51.032;6.356;2023-10-31T00:43:32;11.00;99.90
10296;DHT22;5193;51.032;6.356;2023-10-31T00:45:58;11.00;99.90
10296;DHT22;5193;51.032;6.356;2023-10-31T00:48:24;10.90;99.90
10296;DHT22;5193;51.032;6.356;2023-10-31T00:50:50;10.90;99.90
10296;DHT22;5193;51.032;6.356;2023-10-31T00:53:17;11.10;99.90
10296;DHT22;5193;51.032;6.356;2023-10-31T00:55:44;10.90;99.90
10296;DHT22;5193;51.032;6.356;2023-10-31T00:58:14;10.90;99.90
10296;DHT22;5193;51.032;6.356;2023-10-31T01:00:43;10.90;99.90
10296;DHT22;5193;51.032;6.356;2023-10-31T01:03:10;10.80;99.90
10296;DHT22;5193;51.032;6.356;2023-10-31T01:05:36;10.80;99.90
10296;DHT22;5193;51.032;6.356;2023-10-31T01:08:03;10.80;99.90
10296;DHT22;5193;51.032;6.356;2023-10-31T01:10:29;10.80;99.90
10296;DHT22;5193;51.032;6.356;2023-10-31T01:12:58;10.70;99.90
10296;DHT22;5193;51.032;6.356;2023-10-31T01:15:24;10.70;99.90
10296;DHT22;5193;51.032;6.356;2023-10-31T01:17:51;10.70;99.90
10296;DHT22;5193;51.032;6.356;2023-10-31T01:20:17;10.70;99.90
10296;DHT22;5193;51.032;6.356;2023-10-31T01:22:46;10.70;99.90
10296;DHT22;5193;51.032;6.356;2023-10-31T01:25:12;10.80;99.90
10296;DHT22;5193;51.032;6.356;2023-10-31T01:27:38;10.70;99.90
10296;DHT22;5193;51.032;6.356;2023-10-31T01:30:05;10.70;99.90
10296;DHT22;5193;51.032;6.356;2023-10-31T01:32:41;10.70;99.90
10296;DHT22;5193;51.032;6.356;2023-10-31T01:35:07;10.60;99.90
10296;DHT22;5193;51.032;6.356;2023-10-31T01:37:33;10.60;99.90
10296;DHT22;5193;51.032;6.356;2023-10-31T01:39:59;10.60;99.90
10296;DHT22;5193;51.032;6.356;2023-10-31T01:42:28;10.60;99.90
10296;DHT22;5193;51.032;6.356;2023-10-31T01:44:55;10.60;99.90
10296;DHT22;5193;51.032;6.356;2023-10-31T01:47:20;10.60;99.90
10296;DHT22;5193;51.032;6.356;2023-10-31T01:49:48;10.60;99.90
10296;DHT22;5193;51.032;6.356;2023-10-31T01:52:13;10.60;99.90
10296;DHT22;5193;51.032;6.356;2023-10-31T01:54:44;10.60;99.90
10296;DHT22;5193;51.032;6.356;2023-10-31T01:57:12;10.60;99.90
10296;DHT22;5193;51.032;6.356;2023-10-31T01:59:39;10.60;99.90
10296;DHT22;5193;51.032;6.356;2023-10-31T02:02:06;10.60;99.90
10296;DHT22;5193;51.032;6.356;2023-10-31T02:04:33;10.50;99.90
10296;DHT22;5193;51.032;6.356;2023-10-31T02:07:02;10.50;99.90
10296;DHT22;5193;51.032;6.356;2023-10-31T02:09:29;10.50;99.90
10296;DHT22;5193;51.032;6.356;2023-10-31T02:11:56;10.40;99.90
10296;DHT22;5193;51.032;6.356;2023-10-31T02:14:25;10.50;99.90
10296;DHT22;5193;51.032;6.356;2023-10-31T02:16:51;10.50;99.90
10296;DHT22;5193;51.032;6.356;2023-10-31T02:19:21;10.50;99.90
10296;DHT22;5193;51.032;6.356;2023-10-31T02:21:48;10.50;99.90
10296;DHT22;5193;51.032;6.356;2023-10-31T02:24:14;10.50;99.90
10296;DHT22;5193;51.032;6.356;2023-10-31T02:26:42;10.50;99.90
10296;DHT22;5193;51.032;6.356;2023-10-31T02:29:09;10.50;99.90
10296;DHT22;5193;51.032;6.356;2023-10-31T02:31:35;10.50;99.90
10296;DHT22;5193;51.032;6.356;2023-10-31T02:34:00;10.50;99.90
10296;DHT22;5193;51.032;6.356;2023-10-31T02:36:26;10.50;99.90
10296;DHT22;5193;51.032;6.356;2023-10-31T02:38:51;10.40;99.90
10296;DHT22;5193;51.032;6.356;2023-10-31T02:41:17;10.40;99.90
10296;DHT22;5193;51.032;6.356;2023-10-31T02:43:43;10.40;99.90
10296;DHT22;5193;51.032;6.356;2023-10-31T02:46:08;10.40;99.90
10296;DHT22;5193;51.032;6.356;2023-10-31T02:48:37;10.40;99.90
10296;DHT22;5193;51.032;6.356;2023-10-31T02:51:07;10.30;99.90
10296;DHT22;5193;51.032;6.356;2023-10-31T02:53:34;10.30;99.90
10296;DHT22;5193;51.032;6.356;2023-10-31T02:56:00;10.30;99.90
10296;DHT22;5193;51.032;6.356;2023-10-31T02:58:25;10.30;99.90
10296;DHT22;5193;51.032;6.356;2023-10-31T03:00:51;10.30;99.90
10296;DHT22;5193;51.032;6.356;2023-10-31T03:03:17;10.30;99.90
10296;DHT22;5193;51.032;6.356;2023-10-31T03:05:42;10.30;99.90
10296;DHT22;5193;51.032;6.356;2023-10-31T03:08:10;10.30;99.90
10296;DHT22;5193;51.032;6.356;2023-10-31T03:10:38;10.20;99.90
10296;DHT22;5193;51.032;6.356;2023-10-31T03:13:03;10.30;99.90
10296;DHT22;5193;51.032;6.356;2023-10-31T03:15:32;10.40;99.90
10296;DHT22;5193;51.032;6.356;2023-10-31T03:17:58;10.30;99.90
10296;DHT22;5193;51.032;6.356;2023-10-31T03:20:23;10.40;99.90
10296;DHT22;5193;51.032;6.356;2023-10-31T03:22:49;10.30;99.90
10296;DHT22;5193;51.032;6.356;2023-10-31T03:25:15;10.40;99.90
10296;DHT22;5193;51.032;6.356;2023-10-31T03:27:44;10.40;99.90
10296;DHT22;5193;51.032;6.356;2023-10-31T03:30:11;10.40;99.90
10296;DHT22;5193;51.032;6.356;2023-10-31T03:32:40;10.40;99.90
10296;DHT22;5193;51.032;6.356;2023-10-31T03:35:08;10.50;99.90
10296;DHT22;5193;51.032;6.356;2023-10-31T03:37:39;10.50;99.90
10296;DHT22;5193;51.032;6.356;2023-10-31T03:40:08;10.50;99.90
10296;DHT22;5193;51.032;6.356;2023-10-31T03:42:35;10.60;99.90
10296;DHT22;5193;51.032;6.356;2023-10-31T03:45:02;10.60;99.90
10296;DHT22;5193;51.032;6.356;2023-10-31T03:47:28;10.60;99.90
10296;DHT22;5193;51.032;6.356;2023-10-31T03:49:59;10.60;99.90
10296;DHT22;5193;51.032;6.356;2023-10-31T03:52:25;10.60;99.90
10296;DHT22;5193;51.032;6.356;2023-10-31T03:54:50;10.60;99.90
10296;DHT22;5193;51.032;6.356;2023-10-31T03:57:17;10.60;99.90
10296;DHT22;5193;51.032;6.356;2023-10-31T03:59:44;10.50;99.90
10296;DHT22;5193;51.032;6.356;2023-10-31T04:02:10;10.60;99.90
10296;DHT22;5193;51.032;6.356;2023-10-31T04:04:36;10.50;99.90
10296;DHT22;5193;51.032;6.356;2023-10-31T04:07:01;10.60;99.90
10296;DHT22;5193;51.032;6.356;2023-10-31T04:09:27;10.50;99.90
10296;DHT22;5193;51.032;6.356;2023-10-31T04:11:55;10.50;99.90
10296;DHT22;5193;51.032;6.356;2023-10-31T04:14:21;10.50;99.90
10296;DHT22;5193;51.032;6.356;2023-10-31T04:16:48;10.50;99.90
10296;DHT22;5193;51.032;6.356;2023-10-31T04:19:13;10.50;99.90
10296;DHT22;5193;51.032;6.356;2023-10-31T04:21:39;10.50;99.90
10296;DHT22;5193;51.032;6.356;2023-10-31T04:24:05;10.60;99.90
10296;DHT22;5193;51.032;6.356;2023-10-31T04:26:31;10.60;99.90
10296;DHT22;5193;51.032;6.356;2023-10-31T04:28:56;10.60;99.90
10296;DHT22;5193;51.032;6.356;2023-10-31T04:31:24;10.60;99.90
10296;DHT22;5193;51.032;6.356;2023-10-31T04:33:49;10.60;99.90
10296;DHT22;5193;51.032;6.356;2023-10-31T04:36:15;10.60;99.90
10296;DHT22;5193;51.032;6.356;2023-10-31T04:38:41;10.60;99.90
10296;DHT22;5193;51.032;6.356;2023-10-31T04:41:08;10.60;99.90
10296;DHT22;5193;51.032;6.356;2023-10-31T04:43:34;10.60;99.90
10296;DHT22;5193;51.032;6.356;2023-10-31T04:46:00;10.60;99.90
10296;DHT22;5193;51.032;6.356;2023-10-31T04:48:27;10.60;99.90
10296;DHT22;5193;51.032;6.356;2023-10-31T04:50:53;10.60;99.90
10296;DHT22;5193;51.032;6.356;2023-10-31T04:53:19;10.70;99.90
10296;DHT22;5193;51.032;6.356;2023-10-31T04:55:44;10.60;99.90
10296;DHT22;5193;51.032;6.356;2023-10-31T04:58:10;10.60;99.90
10296;DHT22;5193;51.032;6.356;2023-10-31T05:00:39;10.60;99.90
10296;DHT22;5193;51.032;6.356;2023-10-31T05:03:05;10.60;99.90
10296;DHT22;5193;51.032;6.356;2023-10-31T05:05:31;10.60;99.90
10296;DHT22;5193;51.032;6.356;2023-10-31T05:07:57;10.60;99.90
10296;DHT22;5193;51.032;6.356;2023-10-31T05:10:24;10.60;99.90
10296;DHT22;5193;51.032;6.356;2023-10-31T05:12:51;10.70;99.90
10296;DHT22;5193;51.032;6.356;2023-10-31T05:15:21;10.70;99.90
10296;DHT22;5193;51.032;6.356;2023-10-31T05:17:47;10.60;99.90
10296;DHT22;5193;51.032;6.356;2023-10-31T05:20:16;10.60;99.90
10296;DHT22;5193;51.032;6.356;2023-10-31T05:22:46;10.60;99.90
10296;DHT22;5193;51.032;6.356;2023-10-31T05:25:13;10.60;99.90
10296;DHT22;5193;51.032;6.356;2023-10-31T05:27:39;10.60;99.90
10296;DHT22;5193;51.032;6.356;2023-10-31T05:30:06;10.60;99.90
10296;DHT22;5193;51.032;6.356;2023-10-31T05:32:32;10.60;99.90
10296;DHT22;5193;51.032;6.356;2023-10-31T05:34:58;10.60;99.90
10296;DHT22;5193;51.032;6.356;2023-10-31T05:37:23;10.60;99.90
10296;DHT22;5193;51.032;6.356;2023-10-31T05:39:50;10.60;99.90
10296;DHT22;5193;51.032;6.356;2023-10-31T05:42:17;10.60;99.90
10296;DHT22;5193;51.032;6.356;2023-10-31T05:44:46;10.60;99.90
10296;DHT22;5193;51.032;6.356;2023-10-31T05:47:11;10.60;99.90
10296;DHT22;5193;51.032;6.356;2023-10-31T05:49:37;10.60;99.90
10296;DHT22;5193;51.032;6.356;2023-10-31T05:52:03;10.60;99.90
10296;DHT22;5193;51.032;6.356;2023-10-31T05:54:28;10.60;99.90
10296;DHT22;5193;51.032;6.356;2023-10-31T05:56:54;10.50;99.90
10296;DHT22;5193;51.032;6.356;2023-10-31T05:59:20;10.50;99.90
10296;DHT22;5193;51.032;6.356;2023-10-31T06:01:45;10.50;99.90
10296;DHT22;5193;51.032;6.356;2023-10-31T06:04:11;10.50;99.90
10296;DHT22;5193;51.032;6.356;2023-10-31T06:06:37;10.40;99.90
10296;DHT22;5193;51.032;6.356;2023-10-31T06:09:03;10.50;99.90
10296;DHT22;5193;51.032;6.356;2023-10-31T06:11:30;10.40;99.90
10296;DHT22;5193;51.032;6.356;2023-10-31T06:13:56;10.40;99.90
10296;DHT22;5193;51.032;6.356;2023-10-31T06:16:22;10.40;99.90
10296;DHT22;5193;51.032;6.356;2023-10-31T06:18:47;10.40;99.90
10296;DHT22;5193;51.032;6.356;2023-10-31T06:21:13;10.30;99.90
10296;DHT22;5193;51.032;6.356;2023-10-31T06:23:41;10.40;99.90
10296;DHT22;5193;51.032;6.356;2023-10-31T06:26:10;10.30;99.90
10296;DHT22;5193;51.032;6.356;2023-10-31T06:28:36;10.30;99.90
10296;DHT22;5193;51.032;6.356;2023-10-31T06:31:03;10.30;99.90
10296;DHT22;5193;51.032;6.356;2023-10-31T06:33:29;10.40;99.90
10296;DHT22;5193;51.032;6.356;2023-10-31T06:35:55;10.30;99.90
10296;DHT22;5193;51.032;6.356;2023-10-31T06:38:21;10.40;99.90
10296;DHT22;5193;51.032;6.356;2023-10-31T06:40:46;10.40;99.90
10296;DHT22;5193;51.032;6.356;2023-10-31T06:43:12;10.40;99.90
10296;DHT22;5193;51.032;6.356;2023-10-31T06:45:38;10.40;99.90
10296;DHT22;5193;51.032;6.356;2023-10-31T06:48:05;10.30;99.90
10296;DHT22;5193;51.032;6.356;2023-10-31T06:50:36;10.30;99.90
10296;DHT22;5193;51.032;6.356;2023-10-31T06:53:02;10.30;99.90
10296;DHT22;5193;51.032;6.356;2023-10-31T06:55:28;10.40;99.90
10296;DHT22;5193;51.032;6.356;2023-10-31T06:57:54;10.30;99.90
10296;DHT22;5193;51.032;6.356;2023-10-31T07:00:19;10.30;99.90
10296;DHT22;5193;51.032;6.356;2023-10-31T07:02:46;10.30;99.90
10296;DHT22;5193;51.032;6.356;2023-10-31T07:05:13;10.30;99.90
10296;DHT22;5193;51.032;6.356;2023-10-31T07:07:39;10.30;99.90
10296;DHT22;5193;51.032;6.356;2023-10-31T07:10:08;10.30;99.90
10296;DHT22;5193;51.032;6.356;2023-10-31T07:12:35;10.30;99.90
10296;DHT22;5193;51.032;6.356;2023-10-31T07:15:01;10.30;99.90
10296;DHT22;5193;51.032;6.356;2023-10-31T07:17:26;10.40;99.90
10296;DHT22;5193;51.032;6.356;2023-10-31T07:19:52;10.40;99.90
10296;DHT22;5193;51.032;6.356;2023-10-31T07:22:17;10.40;99.90
10296;DHT22;5193;51.032;6.356;2023-10-31T07:24:43;10.40;99.90
10296;DHT22;5193;51.032;6.356;2023-10-31T07:27:09;10.50;99.90
10296;DHT22;5193;51.032;6.356;2023-10-31T07:29:35;10.40;99.90
10296;DHT22;5193;51.032;6.356;2023-10-31T07:32:01;10.50;99.90
10296;DHT22;5193;51.032;6.356;2023-10-31T07:34:28;10.50;99.90
10296;DHT22;5193;51.032;6.356;2023-10-31T07:36:54;10.50;99.90
10296;DHT22;5193;51.032;6.356;2023-10-31T07:39:20;10.50;99.90
10296;DHT22;5193;51.032;6.356;2023-10-31T07:41:45;10.60;99.90
10296;DHT22;5193;51.032;6.356;2023-10-31T07:44:11;10.60;99.90
10296;DHT22;5193;51.032;6.356;2023-10-31T07:46:37;10.60;99.90
10296;DHT22;5193;51.032;6.356;2023-10-31T07:49:06;10.60;99.90
10296;DHT22;5193;51.032;6.356;2023-10-31T07:51:32;10.60;99.90
10296;DHT22;5193;51.032;6.356;2023-10-31T07:54:01;10.60;99.90
10296;DHT22;5193;51.032;6.356;2023-10-31T07:56:27;10.60;99.90
10296;DHT22;5193;51.032;6.356;2023-10-31T07:58:58;10.60;99.90
10296;DHT22;5193;51.032;6.356;2023-10-31T08:01:24;10.60;99.90
10296;DHT22;5193;51.032;6.356;2023-10-31T08:03:49;10.60;99.90
10296;DHT22;5193;51.032;6.356;2023-10-31T08:06:17;10.70;99.90
10296;DHT22;5193;51.032;6.356;2023-10-31T08:08:42;10.70;99.90
10296;DHT22;5193;51.032;6.356;2023-10-31T08:11:09;10.70;99.90
10296;DHT22;5193;51.032;6.356;2023-10-31T08:13:40;10.70;99.90
10296;DHT22;5193;51.032;6.356;2023-10-31T08:16:07;10.70;99.90
10296;DHT22;5193;51.032;6.356;2023-10-31T08:18:33;10.70;99.90
10296;DHT22;5193;51.032;6.356;2023-10-31T08:20:59;10.70;99.90
10296;DHT22;5193;51.032;6.356;2023-10-31T08:23:25;10.80;99.90
10296;DHT22;5193;51.032;6.356;2023-10-31T08:25:51;10.80;99.90
10296;DHT22;5193;51.032;6.356;2023-10-31T08:28:17;10.80;99.90
10296;DHT22;5193;51.032;6.356;2023-10-31T08:30:43;10.80;99.90
10296;DHT22;5193;51.032;6.356;2023-10-31T08:33:09;10.80;99.90
10296;DHT22;5193;51.032;6.356;2023-10-31T08:35:35;10.90;99.90
10296;DHT22;5193;51.032;6.356;2023-10-31T08:38:00;11.00;99.90
10296;DHT22;5193;51.032;6.356;2023-10-31T08:40:26;11.00;99.90
10296;DHT22;5193;51.032;6.356;2023-10-31T08:42:52;11.10;99.90
10296;DHT22;5193;51.032;6.356;2023-10-31T08:45:19;11.10;99.90
10296;DHT22;5193;51.032;6.356;2023-10-31T08:47:44;11.20;99.90
10296;DHT22;5193;51.032;6.356;2023-10-31T08:50:10;11.30;99.90
10296;DHT22;5193;51.032;6.356;2023-10-31T08:52:37;11.30;99.90
10296;DHT22;5193;51.032;6.356;2023-10-31T08:55:03;11.30;99.90
10296;DHT22;5193;51.032;6.356;2023-10-31T08:57:29;11.30;99.90
10296;DHT22;5193;51.032;6.356;2023-10-31T08:59:55;11.30;99.90
10296;DHT22;5193;51.032;6.356;2023-10-31T09:02:21;11.30;99.90
10296;DHT22;5193;51.032;6.356;2023-10-31T09:04:47;11.30;99.90
10296;DHT22;5193;51.032;6.356;2023-10-31T09:07:13;11.40;99.90
10296;DHT22;5193;51.032;6.356;2023-10-31T09:09:39;11.40;99.90
10296;DHT22;5193;51.032;6.356;2023-10-31T09:12:05;11.40;99.90
10296;DHT22;5193;51.032;6.356;2023-10-31T09:14:33;11.50;99.90
10296;DHT22;5193;51.032;6.356;2023-10-31T09:17:01;11.60;99.90
10296;DHT22;5193;51.032;6.356;2023-10-31T09:19:29;11.60;99.90
10296;DHT22;5193;51.032;6.356;2023-10-31T09:21:55;11.70;99.90
10296;DHT22;5193;51.032;6.356;2023-10-31T09:24:22;11.80;99.90
10296;DHT22;5193;51.032;6.356;2023-10-31T09:26:49;11.80;99.90
10296;DHT22;5193;51.032;6.356;2023-10-31T09:29:15;11.90;99.90
10296;DHT22;5193;51.032;6.356;2023-10-31T09:31:40;11.90;99.90
10296;DHT22;5193;51.032;6.356;2023-10-31T09:34:06;12.00;99.90
10296;DHT22;5193;51.032;6.356;2023-10-31T09:36:35;12.10;99.90
10296;DHT22;5193;51.032;6.356;2023-10-31T09:39:00;12.20;99.90
10296;DHT22;5193;51.032;6.356;2023-10-31T09:41:26;12.30;99.90
10296;DHT22;5193;51.032;6.356;2023-10-31T09:43:53;12.40;99.90
10296;DHT22;5193;51.032;6.356;2023-10-31T09:46:21;12.40;99.90
10296;DHT22;5193;51.032;6.356;2023-10-31T09:48:48;12.50;99.90
10296;DHT22;5193;51.032;6.356;2023-10-31T09:51:14;12.50;99.90
10296;DHT22;5193;51.032;6.356;2023-10-31T09:53:41;12.50;99.90
10296;DHT22;5193;51.032;6.356;2023-10-31T09:56:10;12.60;99.90
10296;DHT22;5193;51.032;6.356;2023-10-31T09:58:36;12.70;99.90
10296;DHT22;5193;51.032;6.356;2023-10-31T10:01:02;12.80;99.90
10296;DHT22;5193;51.032;6.356;2023-10-31T10:03:29;12.90;99.90
10296;DHT22;5193;51.032;6.356;2023-10-31T10:05:55;12.90;99.90
10296;DHT22;5193;51.032;6.356;2023-10-31T10:08:21;13.00;99.90
10296;DHT22;5193;51.032;6.356;2023-10-31T10:10:48;13.10;99.90
10296;DHT22;5193;51.032;6.356;2023-10-31T10:13:23;13.20;99.90
10296;DHT22;5193;51.032;6.356;2023-10-31T10:15:51;13.20;99.90
10296;DHT22;5193;51.032;6.356;2023-10-31T10:18:25;13.30;99.90
10296;DHT22;5193;51.032;6.356;2023-10-31T10:21:08;13.50;99.90
10296;DHT22;5193;51.032;6.356;2023-10-31T10:23:34;13.60;99.90
10296;DHT22;5193;51.032;6.356;2023-10-31T10:26:01;13.60;99.90
10296;DHT22;5193;51.032;6.356;2023-10-31T10:28:28;13.60;99.90
10296;DHT22;5193;51.032;6.356;2023-10-31T10:30:55;13.70;99.90
10296;DHT22;5193;51.032;6.356;2023-10-31T10:33:21;13.60;99.90
10296;DHT22;5193;51.032;6.356;2023-10-31T10:35:48;13.70;99.90
10296;DHT22;5193;51.032;6.356;2023-10-31T10:38:19;13.70;99.90
10296;DHT22;5193;51.032;6.356;2023-10-31T10:40:49;13.90;99.90
10296;DHT22;5193;51.032;6.356;2023-10-31T10:43:24;13.90;99.90
10296;DHT22;5193;51.032;6.356;2023-10-31T10:45:55;14.00;99.90
10296;DHT22;5193;51.032;6.356;2023-10-31T10:48:26;14.00;99.90
10296;DHT22;5193;51.032;6.356;2023-10-31T10:51:46;14.10;99.90
10296;DHT22;5193;51.032;6.356;2023-10-31T10:57:18;14.10;99.90
10296;DHT22;5193;51.032;6.356;2023-10-31T10:59:49;14.20;99.90
10296;DHT22;5193;51.032;6.356;2023-10-31T11:02:19;14.20;99.90
10296;DHT22;5193;51.032;6.356;2023-10-31T11:04:50;14.30;99.90
10296;DHT22;5193;51.032;6.356;2023-10-31T11:07:26;14.20;99.90
10296;DHT22;5193;51.032;6.356;2023-10-31T11:09:57;14.10;99.90
10296;DHT22;5193;51.032;6.356;2023-10-31T11:12:31;14.10;99.90
10296;DHT22;5193;51.032;6.356;2023-10-31T11:14:58;14.10;99.90
10296;DHT22;5193;51.032;6.356;2023-10-31T11:17:33;14.10;99.90
10296;DHT22;5193;51.032;6.356;2023-10-31T11:20:00;14.10;99.90
10296;DHT22;5193;51.032;6.356;2023-10-31T11:22:37;14.10;99.90
10296;DHT22;5193;51.032;6.356;2023-10-31T11:25:04;14.10;99.90
10296;DHT22;5193;51.032;6.356;2023-10-31T11:27:34;14.10;99.90
10296;DHT22;5193;51.032;6.356;2023-10-31T11:30:28;14.10;99.90
10296;DHT22;5193;51.032;6.356;2023-10-31T11:33:02;14.20;99.90
10296;DHT22;5193;51.032;6.356;2023-10-31T11:35:40;14.20;99.90
10296;DHT22;5193;51.032;6.356;2023-10-31T11:38:12;14.10;99.90
10296;DHT22;5193;51.032;6.356;2023-10-31T11:40:59;14.20;99.90
10296;DHT22;5193;51.032;6.356;2023-10-31T11:43:25;14.20;99.90
10296;DHT22;5193;51.032;6.356;2023-10-31T11:46:01;14.20;99.90
10296;DHT22;5193;51.032;6.356;2023-10-31T11:48:53;14.20;99.90
10296;DHT22;5193;51.032;6.356;2023-10-31T11:51:21;14.20;99.90
10296;DHT22;5193;51.032;6.356;2023-10-31T11:53:48;14.20;99.90
10296;DHT22;5193;51.032;6.356;2023-10-31T11:56:21;14.30;99.90
10296;DHT22;5193;51.032;6.356;2023-10-31T11:59:05;14.30;99.90
10296;DHT22;5193;51.032;6.356;2023-10-31T12:01:32;14.40;99.90
10296;DHT22;5193;51.032;6.356;2023-10-31T12:03:58;14.40;99.90
10296;DHT22;5193;51.032;6.356;2023-10-31T12:06:25;14.40;99.90
10296;DHT22;5193;51.032;6.356;2023-10-31T12:08:51;14.50;99.90
10296;DHT22;5193;51.032;6.356;2023-10-31T12:11:22;14.60;99.90
10296;DHT22;5193;51.032;6.356;2023-10-31T12:16:28;14.60;99.90
10296;DHT22;5193;51.032;6.356;2023-10-31T12:18:57;14.70;99.90
10296;DHT22;5193;51.032;6.356;2023-10-31T12:21:47;14.80;99.90
10296;DHT22;5193;51.032;6.356;2023-10-31T12:24:18;14.90;99.90
10296;DHT22;5193;51.032;6.356;2023-10-31T12:26:45;14.80;99.90
10296;DHT22;5193;51.032;6.356;2023-10-31T12:29:12;14.70;99.90
10296;DHT22;5193;51.032;6.356;2023-10-31T12:31:53;14.60;99.90
10296;DHT22;5193;51.032;6.356;2023-10-31T12:34:21;14.50;99.90
10296;DHT22;5193;51.032;6.356;2023-10-31T12:36:50;14.50;99.90
10296;DHT22;5193;51.032;6.356;2023-10-31T12:39:18;14.50;99.90
10296;DHT22;5193;51.032;6.356;2023-10-31T12:41:50;14.50;99.90
10296;DHT22;5193;51.032;6.356;2023-10-31T12:44:25;14.50;99.90
10296;DHT22;5193;51.032;6.356;2023-10-31T12:46:54;14.50;99.90
10296;DHT22;5193;51.032;6.356;2023-10-31T12:49:21;14.50;99.90
10296;DHT22;5193;51.032;6.356;2023-10-31T12:52:03;14.50;99.90
10296;DHT22;5193;51.032;6.356;2023-10-31T12:54:39;14.50;99.90
10296;DHT22;5193;51.032;6.356;2023-10-31T13:00:35;14.60;99.90
10296;DHT22;5193;51.032;6.356;2023-10-31T13:03:06;14.60;99.90
10296;DHT22;5193;51.032;6.356;2023-10-31T13:05:33;14.60;99.90
10296;DHT22;5193;51.032;6.356;2023-10-31T13:07:59;14.50;99.90
10296;DHT22;5193;51.032;6.356;2023-10-31T13:10:27;14.50;99.90
10296;DHT22;5193;51.032;6.356;2023-10-31T13:12:53;14.50;99.90
10296;DHT22;5193;51.032;6.356;2023-10-31T13:15:23;14.50;99.90
10296;DHT22;5193;51.032;6.356;2023-10-31T13:17:52;14.50;99.90
10296;DHT22;5193;51.032;6.356;2023-10-31T13:20:19;14.50;99.90
10296;DHT22;5193;51.032;6.356;2023-10-31T13:22:45;14.50;99.90
10296;DHT22;5193;51.032;6.356;2023-10-31T13:25:12;14.50;99.90
10296;DHT22;5193;51.032;6.356;2023-10-31T13:27:43;14.50;99.90
10296;DHT22;5193;51.032;6.356;2023-10-31T13:30:11;14.50;99.90
10296;DHT22;5193;51.032;6.356;2023-10-31T13:32:38;14.60;99.90
10296;DHT22;5193;51.032;6.356;2023-10-31T13:35:05;14.60;99.90
10296;DHT22;5193;51.032;6.356;2023-10-31T13:37:30;14.60;99.90
10296;DHT22;5193;51.032;6.356;2023-10-31T13:39:58;14.60;99.90
10296;DHT22;5193;51.032;6.356;2023-10-31T13:42:25;14.70;99.90
10296;DHT22;5193;51.032;6.356;2023-10-31T13:44:54;14.60;99.90
10296;DHT22;5193;51.032;6.356;2023-10-31T13:47:20;14.70;99.90
10296;DHT22;5193;51.032;6.356;2023-10-31T13:49:49;14.60;99.90
10296;DHT22;5193;51.032;6.356;2023-10-31T13:52:15;14.60;99.90
10296;DHT22;5193;51.032;6.356;2023-10-31T13:54:41;14.60;99.90
10296;DHT22;5193;51.032;6.356;2023-10-31T13:57:07;14.60;99.90
10296;DHT22;5193;51.032;6.356;2023-10-31T13:59:33;14.70;99.90
10296;DHT22;5193;51.032;6.356;2023-10-31T14:02:03;14.60;99.90
10296;DHT22;5193;51.032;6.356;2023-10-31T14:04:28;14.70;99.90
10296;DHT22;5193;51.032;6.356;2023-10-31T14:07:00;14.70;99.90
10296;DHT22;5193;51.032;6.356;2023-10-31T14:09:26;14.70;99.90
10296;DHT22;5193;51.032;6.356;2023-10-31T14:11:51;14.70;99.90
10296;DHT22;5193;51.032;6.356;2023-10-31T14:14:17;14.70;99.90
10296;DHT22;5193;51.032;6.356;2023-10-31T14:16:45;14.70;99.90
10296;DHT22;5193;51.032;6.356;2023-10-31T14:19:12;14.60;99.90
10296;DHT22;5193;51.032;6.356;2023-10-31T14:21:38;14.60;99.90
10296;DHT22;5193;51.032;6.356;2023-10-31T14:24:04;14.50;99.90
10296;DHT22;5193;51.032;6.356;2023-10-31T14:26:34;14.50;99.90
10296;DHT22;5193;51.032;6.356;2023-10-31T14:29:00;14.40;99.90
10296;DHT22;5193;51.032;6.356;2023-10-31T14:31:26;14.40;99.90
10296;DHT22;5193;51.032;6.356;2023-10-31T14:33:52;14.40;99.90
10296;DHT22;5193;51.032;6.356;2023-10-31T14:36:17;14.30;99.90
10296;DHT22;5193;51.032;6.356;2023-10-31T14:38:43;14.30;99.90
10296;DHT22;5193;51.032;6.356;2023-10-31T14:41:09;14.20;99.90
10296;DHT22;5193;51.032;6.356;2023-10-31T14:43:35;14.10;99.90
10296;DHT22;5193;51.032;6.356;2023-10-31T14:46:01;14.10;99.90
10296;DHT22;5193;51.032;6.356;2023-10-31T14:48:30;14.00;99.90
10296;DHT22;5193;51.032;6.356;2023-10-31T14:50:55;14.00;99.90
10296;DHT22;5193;51.032;6.356;2023-10-31T14:53:22;14.00;99.90
10296;DHT22;5193;51.032;6.356;2023-10-31T14:55:48;14.00;99.90
10296;DHT22;5193;51.032;6.356;2023-10-31T14:58:17;13.90;99.90
10296;DHT22;5193;51.032;6.356;2023-10-31T15:00:44;13.90;99.90
10296;DHT22;5193;51.032;6.356;2023-10-31T15:03:10;13.90;99.90
10296;DHT22;5193;51.032;6.356;2023-10-31T15:05:35;13.90;99.90
10296;DHT22;5193;51.032;6.356;2023-10-31T15:08:08;13.90;99.90
10296;DHT22;5193;51.032;6.356;2023-10-31T15:10:34;13.80;99.90
10296;DHT22;5193;51.032;6.356;2023-10-31T15:13:02;13.80;99.90
10296;DHT22;5193;51.032;6.356;2023-10-31T15:15:28;13.70;99.90
10296;DHT22;5193;51.032;6.356;2023-10-31T15:17:53;13.70;99.90
10296;DHT22;5193;51.032;6.356;2023-10-31T15:20:19;13.70;99.90
10296;DHT22;5193;51.032;6.356;2023-10-31T15:22:45;13.60;99.90
10296;DHT22;5193;51.032;6.356;2023-10-31T15:25:12;13.50;99.90
10296;DHT22;5193;51.032;6.356;2023-10-31T15:27:40;13.40;99.90
10296;DHT22;5193;51.032;6.356;2023-10-31T15:30:06;13.30;99.90
10296;DHT22;5193;51.032;6.356;2023-10-31T15:32:32;13.20;99.90
10296;DHT22;5193;51.032;6.356;2023-10-31T15:35:11;13.10;99.90
10296;DHT22;5193;51.032;6.356;2023-10-31T15:37:37;13.00;99.90
10296;DHT22;5193;51.032;6.356;2023-10-31T15:40:03;12.90;99.90
10296;DHT22;5193;51.032;6.356;2023-10-31T15:42:30;12.90;99.90
10296;DHT22;5193;51.032;6.356;2023-10-31T15:44:56;12.80;99.90
10296;DHT22;5193;51.032;6.356;2023-10-31T15:47:25;12.70;99.90
10296;DHT22;5193;51.032;6.356;2023-10-31T15:49:50;12.70;99.90
10296;DHT22;5193;51.032;6.356;2023-10-31T15:52:17;12.70;99.90
10296;DHT22;5193;51.032;6.356;2023-10-31T15:54:44;12.60;99.90
10296;DHT22;5193;51.032;6.356;2023-10-31T15:57:10;12.60;99.90